sensor_id;sensor_type;location;lat;lon;timestamp;P1;durP1;ratioP1;P2;durP2;ratioP2
5060;SDS011;2549;52.128;21.068;2022-12-22T00:00:54;47.08;;;21.83;;
5060;SDS011;2549;52.128;21.068;2022-12-22T00:03:39;55.95;;;21.92;;
5060;SDS011;2549;52.128;21.068;2022-12-22T00:06:25;49.70;;;21.85;;
5060;SDS011;2549;52.128;21.068;2022-12-22T00:09:11;60.25;;;22.40;;
5060;SDS011;2549;52.128;21.068;2022-12-22T00:11:56;44.38;;;20.10;;
5060;SDS011;2549;52.128;21.068;2022-12-22T00:14:42;46.50;;;21.83;;
5060;SDS011;2549;52.128;21.068;2022-12-22T00:17:29;50.33;;;22.02;;
5060;SDS011;2549;52.128;21.068;2022-12-22T00:20:15;51.00;;;21.35;;
5060;SDS011;2549;52.128;21.068;2022-12-22T00:23:03;46.08;;;20.58;;
5060;SDS011;2549;52.128;21.068;2022-12-22T00:25:49;47.92;;;20.25;;
5060;SDS011;2549;52.128;21.068;2022-12-22T00:28:34;54.55;;;22.75;;
5060;SDS011;2549;52.128;21.068;2022-12-22T00:31:21;50.78;;;20.27;;
5060;SDS011;2549;52.128;21.068;2022-12-22T00:34:13;39.15;;;20.10;;
5060;SDS011;2549;52.128;21.068;2022-12-22T00:37:01;54.38;;;21.70;;
5060;SDS011;2549;52.128;21.068;2022-12-22T00:39:47;52.72;;;22.23;;
5060;SDS011;2549;52.128;21.068;2022-12-22T00:42:34;52.33;;;22.42;;
5060;SDS011;2549;52.128;21.068;2022-12-22T00:45:19;47.47;;;20.77;;
5060;SDS011;2549;52.128;21.068;2022-12-22T00:48:05;49.78;;;21.63;;
5060;SDS011;2549;52.128;21.068;2022-12-22T00:51:00;59.50;;;22.90;;
5060;SDS011;2549;52.128;21.068;2022-12-22T00:53:45;56.90;;;21.88;;
5060;SDS011;2549;52.128;21.068;2022-12-22T00:56:31;52.20;;;23.45;;
5060;SDS011;2549;52.128;21.068;2022-12-22T00:59:16;56.97;;;24.92;;
5060;SDS011;2549;52.128;21.068;2022-12-22T01:02:02;53.47;;;21.98;;
5060;SDS011;2549;52.128;21.068;2022-12-22T01:04:47;45.28;;;21.27;;
5060;SDS011;2549;52.128;21.068;2022-12-22T01:07:33;53.95;;;21.80;;
5060;SDS011;2549;52.128;21.068;2022-12-22T01:10:19;44.95;;;21.25;;
5060;SDS011;2549;52.128;21.068;2022-12-22T01:13:09;51.28;;;21.00;;
5060;SDS011;2549;52.128;21.068;2022-12-22T01:15:55;63.05;;;22.77;;
5060;SDS011;2549;52.128;21.068;2022-12-22T01:18:41;55.58;;;23.35;;
5060;SDS011;2549;52.128;21.068;2022-12-22T01:21:26;46.83;;;20.85;;
5060;SDS011;2549;52.128;21.068;2022-12-22T01:24:12;57.95;;;20.90;;
5060;SDS011;2549;52.128;21.068;2022-12-22T01:26:59;52.97;;;21.40;;
5060;SDS011;2549;52.128;21.068;2022-12-22T01:29:44;59.40;;;21.30;;
5060;SDS011;2549;52.128;21.068;2022-12-22T01:32:30;52.20;;;23.02;;
5060;SDS011;2549;52.128;21.068;2022-12-22T01:35:16;53.25;;;21.38;;
5060;SDS011;2549;52.128;21.068;2022-12-22T01:38:04;47.88;;;21.10;;
5060;SDS011;2549;52.128;21.068;2022-12-22T01:40:50;55.92;;;21.55;;
5060;SDS011;2549;52.128;21.068;2022-12-22T01:43:37;51.90;;;20.33;;
5060;SDS011;2549;52.128;21.068;2022-12-22T01:49:11;50.97;;;21.17;;
5060;SDS011;2549;52.128;21.068;2022-12-22T01:52:07;52.38;;;20.70;;
5060;SDS011;2549;52.128;21.068;2022-12-22T01:54:55;47.15;;;19.48;;
5060;SDS011;2549;52.128;21.068;2022-12-22T01:57:46;50.72;;;20.77;;
5060;SDS011;2549;52.128;21.068;2022-12-22T02:00:31;53.25;;;20.30;;
5060;SDS011;2549;52.128;21.068;2022-12-22T02:03:18;43.08;;;19.10;;
5060;SDS011;2549;52.128;21.068;2022-12-22T02:15:19;45.05;;;18.67;;
5060;SDS011;2549;52.128;21.068;2022-12-22T02:18:24;55.45;;;19.70;;
5060;SDS011;2549;52.128;21.068;2022-12-22T02:21:16;50.20;;;20.52;;
5060;SDS011;2549;52.128;21.068;2022-12-22T02:27:13;53.58;;;18.90;;
5060;SDS011;2549;52.128;21.068;2022-12-22T02:30:00;44.70;;;19.27;;
5060;SDS011;2549;52.128;21.068;2022-12-22T02:32:49;51.17;;;18.75;;
5060;SDS011;2549;52.128;21.068;2022-12-22T02:35:39;51.55;;;19.85;;
5060;SDS011;2549;52.128;21.068;2022-12-22T02:38:39;42.72;;;17.73;;
5060;SDS011;2549;52.128;21.068;2022-12-22T02:41:38;43.08;;;17.92;;
5060;SDS011;2549;52.128;21.068;2022-12-22T02:51:07;52.45;;;20.17;;
5060;SDS011;2549;52.128;21.068;2022-12-22T02:53:58;49.88;;;19.08;;
5060;SDS011;2549;52.128;21.068;2022-12-22T02:56:44;49.65;;;18.40;;
5060;SDS011;2549;52.128;21.068;2022-12-22T02:59:30;44.70;;;18.40;;
5060;SDS011;2549;52.128;21.068;2022-12-22T03:02:16;56.05;;;20.60;;
5060;SDS011;2549;52.128;21.068;2022-12-22T03:05:02;44.00;;;18.58;;
5060;SDS011;2549;52.128;21.068;2022-12-22T03:07:47;47.40;;;20.25;;
5060;SDS011;2549;52.128;21.068;2022-12-22T03:10:34;37.50;;;17.30;;
5060;SDS011;2549;52.128;21.068;2022-12-22T03:13:20;48.72;;;20.35;;
5060;SDS011;2549;52.128;21.068;2022-12-22T03:16:05;46.55;;;20.35;;
5060;SDS011;2549;52.128;21.068;2022-12-22T03:18:51;42.83;;;18.15;;
5060;SDS011;2549;52.128;21.068;2022-12-22T03:21:36;45.25;;;18.63;;
5060;SDS011;2549;52.128;21.068;2022-12-22T03:24:21;50.08;;;20.55;;
5060;SDS011;2549;52.128;21.068;2022-12-22T03:27:07;48.15;;;19.40;;
5060;SDS011;2549;52.128;21.068;2022-12-22T03:29:34;44.13;;;19.73;;
5060;SDS011;2549;52.128;21.068;2022-12-22T03:32:01;44.25;;;19.52;;
5060;SDS011;2549;52.128;21.068;2022-12-22T03:34:28;43.78;;;20.40;;
5060;SDS011;2549;52.128;21.068;2022-12-22T03:36:55;44.88;;;18.42;;
5060;SDS011;2549;52.128;21.068;2022-12-22T03:39:21;43.35;;;18.27;;
5060;SDS011;2549;52.128;21.068;2022-12-22T03:41:48;41.30;;;16.77;;
5060;SDS011;2549;52.128;21.068;2022-12-22T03:44:34;35.22;;;17.05;;
5060;SDS011;2549;52.128;21.068;2022-12-22T03:47:19;38.33;;;17.60;;
5060;SDS011;2549;52.128;21.068;2022-12-22T03:49:46;45.08;;;17.75;;
5060;SDS011;2549;52.128;21.068;2022-12-22T03:52:13;41.22;;;16.95;;
5060;SDS011;2549;52.128;21.068;2022-12-22T03:54:40;41.38;;;18.35;;
5060;SDS011;2549;52.128;21.068;2022-12-22T03:57:06;37.03;;;16.80;;
5060;SDS011;2549;52.128;21.068;2022-12-22T03:59:33;40.47;;;16.55;;
5060;SDS011;2549;52.128;21.068;2022-12-22T04:02:00;39.30;;;18.13;;
5060;SDS011;2549;52.128;21.068;2022-12-22T04:04:27;46.00;;;19.33;;
5060;SDS011;2549;52.128;21.068;2022-12-22T04:06:54;43.63;;;19.27;;
5060;SDS011;2549;52.128;21.068;2022-12-22T04:09:21;34.88;;;16.58;;
5060;SDS011;2549;52.128;21.068;2022-12-22T04:11:50;39.63;;;16.48;;
5060;SDS011;2549;52.128;21.068;2022-12-22T04:14:37;38.53;;;17.67;;
5060;SDS011;2549;52.128;21.068;2022-12-22T04:17:04;51.25;;;18.60;;
5060;SDS011;2549;52.128;21.068;2022-12-22T04:19:32;39.03;;;16.50;;
5060;SDS011;2549;52.128;21.068;2022-12-22T04:21:59;34.20;;;16.70;;
5060;SDS011;2549;52.128;21.068;2022-12-22T04:24:26;33.05;;;17.48;;
5060;SDS011;2549;52.128;21.068;2022-12-22T04:26:53;37.47;;;17.10;;
5060;SDS011;2549;52.128;21.068;2022-12-22T04:29:19;32.17;;;15.07;;
5060;SDS011;2549;52.128;21.068;2022-12-22T04:31:46;40.70;;;19.33;;
5060;SDS011;2549;52.128;21.068;2022-12-22T04:34:13;38.65;;;17.88;;
5060;SDS011;2549;52.128;21.068;2022-12-22T04:36:40;38.50;;;18.25;;
5060;SDS011;2549;52.128;21.068;2022-12-22T04:39:07;35.10;;;16.15;;
5060;SDS011;2549;52.128;21.068;2022-12-22T04:41:34;37.58;;;18.45;;
5060;SDS011;2549;52.128;21.068;2022-12-22T04:44:01;37.85;;;17.65;;
5060;SDS011;2549;52.128;21.068;2022-12-22T04:46:27;38.08;;;17.58;;
5060;SDS011;2549;52.128;21.068;2022-12-22T04:48:54;34.15;;;17.15;;
5060;SDS011;2549;52.128;21.068;2022-12-22T04:51:26;34.00;;;17.23;;
5060;SDS011;2549;52.128;21.068;2022-12-22T04:53:53;32.83;;;17.30;;
5060;SDS011;2549;52.128;21.068;2022-12-22T04:56:20;42.17;;;19.00;;
5060;SDS011;2549;52.128;21.068;2022-12-22T04:58:47;39.65;;;17.27;;
5060;SDS011;2549;52.128;21.068;2022-12-22T05:01:15;36.50;;;17.50;;
5060;SDS011;2549;52.128;21.068;2022-12-22T05:03:43;36.25;;;17.23;;
5060;SDS011;2549;52.128;21.068;2022-12-22T05:06:10;33.75;;;16.30;;
5060;SDS011;2549;52.128;21.068;2022-12-22T05:08:38;36.78;;;18.63;;
5060;SDS011;2549;52.128;21.068;2022-12-22T05:11:05;39.13;;;17.98;;
5060;SDS011;2549;52.128;21.068;2022-12-22T05:13:32;34.63;;;17.02;;
5060;SDS011;2549;52.128;21.068;2022-12-22T05:16:02;36.95;;;17.80;;
5060;SDS011;2549;52.128;21.068;2022-12-22T05:18:40;36.97;;;17.42;;
5060;SDS011;2549;52.128;21.068;2022-12-22T05:21:16;37.10;;;17.73;;
5060;SDS011;2549;52.128;21.068;2022-12-22T05:23:44;31.38;;;16.45;;
5060;SDS011;2549;52.128;21.068;2022-12-22T05:26:13;34.92;;;17.80;;
5060;SDS011;2549;52.128;21.068;2022-12-22T05:28:40;37.25;;;17.00;;
5060;SDS011;2549;52.128;21.068;2022-12-22T05:31:10;35.20;;;17.30;;
5060;SDS011;2549;52.128;21.068;2022-12-22T05:33:42;33.97;;;17.13;;
5060;SDS011;2549;52.128;21.068;2022-12-22T05:36:09;39.92;;;16.08;;
5060;SDS011;2549;52.128;21.068;2022-12-22T05:38:36;36.20;;;18.08;;
5060;SDS011;2549;52.128;21.068;2022-12-22T05:41:03;29.50;;;17.30;;
5060;SDS011;2549;52.128;21.068;2022-12-22T05:43:31;34.72;;;16.52;;
5060;SDS011;2549;52.128;21.068;2022-12-22T05:46:06;32.35;;;16.27;;
5060;SDS011;2549;52.128;21.068;2022-12-22T05:48:35;33.35;;;16.17;;
5060;SDS011;2549;52.128;21.068;2022-12-22T05:51:05;34.30;;;15.75;;
5060;SDS011;2549;52.128;21.068;2022-12-22T05:53:35;33.25;;;16.50;;
5060;SDS011;2549;52.128;21.068;2022-12-22T05:56:03;30.00;;;16.65;;
5060;SDS011;2549;52.128;21.068;2022-12-22T05:58:30;33.20;;;16.65;;
5060;SDS011;2549;52.128;21.068;2022-12-22T06:00:58;29.15;;;15.82;;
5060;SDS011;2549;52.128;21.068;2022-12-22T06:03:26;35.20;;;16.83;;
5060;SDS011;2549;52.128;21.068;2022-12-22T06:05:53;29.08;;;16.70;;
5060;SDS011;2549;52.128;21.068;2022-12-22T06:08:22;33.58;;;17.13;;
5060;SDS011;2549;52.128;21.068;2022-12-22T06:10:49;29.95;;;15.45;;
5060;SDS011;2549;52.128;21.068;2022-12-22T06:13:18;29.85;;;16.05;;
5060;SDS011;2549;52.128;21.068;2022-12-22T06:15:46;27.98;;;16.15;;
5060;SDS011;2549;52.128;21.068;2022-12-22T06:18:13;30.48;;;15.57;;
5060;SDS011;2549;52.128;21.068;2022-12-22T06:20:40;33.03;;;15.45;;
5060;SDS011;2549;52.128;21.068;2022-12-22T06:23:07;31.90;;;16.50;;
5060;SDS011;2549;52.128;21.068;2022-12-22T06:25:34;32.58;;;16.42;;
5060;SDS011;2549;52.128;21.068;2022-12-22T06:28:01;32.92;;;17.23;;
5060;SDS011;2549;52.128;21.068;2022-12-22T06:30:28;30.27;;;15.15;;
5060;SDS011;2549;52.128;21.068;2022-12-22T06:32:59;25.98;;;14.73;;
5060;SDS011;2549;52.128;21.068;2022-12-22T06:35:26;31.95;;;15.82;;
5060;SDS011;2549;52.128;21.068;2022-12-22T06:37:54;29.08;;;15.70;;
5060;SDS011;2549;52.128;21.068;2022-12-22T06:40:20;27.35;;;15.15;;
5060;SDS011;2549;52.128;21.068;2022-12-22T06:42:47;29.85;;;15.18;;
5060;SDS011;2549;52.128;21.068;2022-12-22T06:45:38;28.27;;;15.48;;
5060;SDS011;2549;52.128;21.068;2022-12-22T06:48:08;26.10;;;14.48;;
5060;SDS011;2549;52.128;21.068;2022-12-22T06:50:36;28.40;;;14.50;;
5060;SDS011;2549;52.128;21.068;2022-12-22T06:53:02;25.25;;;14.23;;
5060;SDS011;2549;52.128;21.068;2022-12-22T06:55:30;28.00;;;16.05;;
5060;SDS011;2549;52.128;21.068;2022-12-22T06:57:57;30.95;;;14.93;;
5060;SDS011;2549;52.128;21.068;2022-12-22T07:00:23;36.03;;;15.90;;
5060;SDS011;2549;52.128;21.068;2022-12-22T07:02:50;27.52;;;14.00;;
5060;SDS011;2549;52.128;21.068;2022-12-22T07:05:17;30.10;;;14.23;;
5060;SDS011;2549;52.128;21.068;2022-12-22T07:07:45;33.88;;;16.45;;
5060;SDS011;2549;52.128;21.068;2022-12-22T07:10:11;35.20;;;16.25;;
5060;SDS011;2549;52.128;21.068;2022-12-22T07:12:38;26.63;;;15.00;;
5060;SDS011;2549;52.128;21.068;2022-12-22T07:15:05;32.90;;;15.20;;
5060;SDS011;2549;52.128;21.068;2022-12-22T07:17:33;34.55;;;16.17;;
5060;SDS011;2549;52.128;21.068;2022-12-22T07:20:00;31.83;;;15.40;;
5060;SDS011;2549;52.128;21.068;2022-12-22T07:22:27;24.00;;;13.65;;
5060;SDS011;2549;52.128;21.068;2022-12-22T07:24:56;30.42;;;15.77;;
5060;SDS011;2549;52.128;21.068;2022-12-22T07:27:23;26.85;;;15.15;;
5060;SDS011;2549;52.128;21.068;2022-12-22T07:29:50;32.47;;;16.27;;
5060;SDS011;2549;52.128;21.068;2022-12-22T07:32:17;30.17;;;15.13;;
5060;SDS011;2549;52.128;21.068;2022-12-22T07:34:44;30.13;;;15.23;;
5060;SDS011;2549;52.128;21.068;2022-12-22T07:37:10;31.38;;;15.75;;
5060;SDS011;2549;52.128;21.068;2022-12-22T07:39:39;27.48;;;15.02;;
5060;SDS011;2549;52.128;21.068;2022-12-22T07:42:06;36.83;;;16.52;;
5060;SDS011;2549;52.128;21.068;2022-12-22T07:44:52;30.13;;;16.17;;
5060;SDS011;2549;52.128;21.068;2022-12-22T07:47:19;28.42;;;14.73;;
5060;SDS011;2549;52.128;21.068;2022-12-22T07:49:46;27.80;;;14.75;;
5060;SDS011;2549;52.128;21.068;2022-12-22T07:52:31;32.50;;;14.77;;
5060;SDS011;2549;52.128;21.068;2022-12-22T07:54:58;27.30;;;15.75;;
5060;SDS011;2549;52.128;21.068;2022-12-22T07:57:25;29.13;;;14.95;;
5060;SDS011;2549;52.128;21.068;2022-12-22T07:59:52;32.20;;;16.08;;
5060;SDS011;2549;52.128;21.068;2022-12-22T08:02:19;30.33;;;14.40;;
5060;SDS011;2549;52.128;21.068;2022-12-22T08:04:46;30.05;;;14.77;;
5060;SDS011;2549;52.128;21.068;2022-12-22T08:07:13;31.75;;;14.73;;
5060;SDS011;2549;52.128;21.068;2022-12-22T08:09:40;34.10;;;16.52;;
5060;SDS011;2549;52.128;21.068;2022-12-22T08:12:07;29.52;;;15.15;;
5060;SDS011;2549;52.128;21.068;2022-12-22T08:14:34;31.92;;;15.55;;
5060;SDS011;2549;52.128;21.068;2022-12-22T08:17:01;30.67;;;14.23;;
5060;SDS011;2549;52.128;21.068;2022-12-22T08:19:28;32.55;;;15.98;;
5060;SDS011;2549;52.128;21.068;2022-12-22T08:21:54;32.40;;;15.40;;
5060;SDS011;2549;52.128;21.068;2022-12-22T08:24:21;26.52;;;13.85;;
5060;SDS011;2549;52.128;21.068;2022-12-22T08:26:49;23.83;;;13.40;;
5060;SDS011;2549;52.128;21.068;2022-12-22T08:29:23;31.50;;;14.60;;
5060;SDS011;2549;52.128;21.068;2022-12-22T08:31:54;30.95;;;15.05;;
5060;SDS011;2549;52.128;21.068;2022-12-22T08:34:21;31.15;;;16.98;;
5060;SDS011;2549;52.128;21.068;2022-12-22T08:36:49;28.83;;;15.07;;
5060;SDS011;2549;52.128;21.068;2022-12-22T08:39:20;29.80;;;14.85;;
5060;SDS011;2549;52.128;21.068;2022-12-22T08:41:49;28.55;;;14.90;;
5060;SDS011;2549;52.128;21.068;2022-12-22T08:44:17;27.45;;;15.02;;
5060;SDS011;2549;52.128;21.068;2022-12-22T08:46:44;27.13;;;13.60;;
5060;SDS011;2549;52.128;21.068;2022-12-22T08:49:12;31.75;;;13.80;;
5060;SDS011;2549;52.128;21.068;2022-12-22T08:51:39;27.50;;;14.55;;
5060;SDS011;2549;52.128;21.068;2022-12-22T08:54:06;32.00;;;16.35;;
5060;SDS011;2549;52.128;21.068;2022-12-22T08:56:33;25.85;;;14.55;;
5060;SDS011;2549;52.128;21.068;2022-12-22T08:59:00;34.03;;;15.30;;
5060;SDS011;2549;52.128;21.068;2022-12-22T09:01:31;33.55;;;15.95;;
5060;SDS011;2549;52.128;21.068;2022-12-22T09:03:59;25.08;;;13.63;;
5060;SDS011;2549;52.128;21.068;2022-12-22T09:06:26;27.23;;;14.25;;
5060;SDS011;2549;52.128;21.068;2022-12-22T09:09:04;28.60;;;15.05;;
5060;SDS011;2549;52.128;21.068;2022-12-22T09:11:33;31.95;;;15.27;;
5060;SDS011;2549;52.128;21.068;2022-12-22T09:14:00;28.90;;;15.35;;
5060;SDS011;2549;52.128;21.068;2022-12-22T09:16:28;28.15;;;15.30;;
5060;SDS011;2549;52.128;21.068;2022-12-22T09:18:57;30.38;;;15.82;;
5060;SDS011;2549;52.128;21.068;2022-12-22T09:21:24;27.80;;;14.15;;
5060;SDS011;2549;52.128;21.068;2022-12-22T09:23:52;28.90;;;14.45;;
5060;SDS011;2549;52.128;21.068;2022-12-22T09:26:20;32.15;;;16.65;;
5060;SDS011;2549;52.128;21.068;2022-12-22T09:28:49;29.15;;;14.63;;
5060;SDS011;2549;52.128;21.068;2022-12-22T09:31:17;29.98;;;15.63;;
5060;SDS011;2549;52.128;21.068;2022-12-22T09:33:45;27.90;;;15.75;;
5060;SDS011;2549;52.128;21.068;2022-12-22T09:36:13;30.38;;;15.75;;
5060;SDS011;2549;52.128;21.068;2022-12-22T09:38:42;26.73;;;14.20;;
5060;SDS011;2549;52.128;21.068;2022-12-22T09:41:14;26.83;;;14.55;;
5060;SDS011;2549;52.128;21.068;2022-12-22T09:43:44;29.98;;;15.07;;
5060;SDS011;2549;52.128;21.068;2022-12-22T09:46:22;27.85;;;14.30;;
5060;SDS011;2549;52.128;21.068;2022-12-22T09:48:52;23.83;;;13.23;;
5060;SDS011;2549;52.128;21.068;2022-12-22T09:51:19;28.55;;;15.65;;
5060;SDS011;2549;52.128;21.068;2022-12-22T09:53:58;34.00;;;15.43;;
5060;SDS011;2549;52.128;21.068;2022-12-22T09:56:27;30.42;;;15.43;;
5060;SDS011;2549;52.128;21.068;2022-12-22T09:58:54;30.35;;;15.95;;
5060;SDS011;2549;52.128;21.068;2022-12-22T10:06:58;34.40;;;15.32;;
5060;SDS011;2549;52.128;21.068;2022-12-22T10:09:38;33.05;;;15.02;;
5060;SDS011;2549;52.128;21.068;2022-12-22T10:12:22;35.70;;;14.82;;
5060;SDS011;2549;52.128;21.068;2022-12-22T10:14:50;28.85;;;16.13;;
5060;SDS011;2549;52.128;21.068;2022-12-22T10:19:52;32.13;;;16.13;;
5060;SDS011;2549;52.128;21.068;2022-12-22T10:22:28;27.65;;;14.95;;
5060;SDS011;2549;52.128;21.068;2022-12-22T10:25:01;38.45;;;16.38;;
5060;SDS011;2549;52.128;21.068;2022-12-22T10:27:30;29.02;;;15.13;;
5060;SDS011;2549;52.128;21.068;2022-12-22T10:30:16;36.03;;;16.08;;
5060;SDS011;2549;52.128;21.068;2022-12-22T10:32:59;31.10;;;16.00;;
5060;SDS011;2549;52.128;21.068;2022-12-22T10:35:50;28.25;;;14.95;;
5060;SDS011;2549;52.128;21.068;2022-12-22T10:40:52;34.55;;;15.82;;
5060;SDS011;2549;52.128;21.068;2022-12-22T10:43:29;30.70;;;15.15;;
5060;SDS011;2549;52.128;21.068;2022-12-22T10:46:02;28.08;;;15.43;;
5060;SDS011;2549;52.128;21.068;2022-12-22T10:50:59;31.65;;;16.02;;
5060;SDS011;2549;52.128;21.068;2022-12-22T10:56:15;30.20;;;15.02;;
5060;SDS011;2549;52.128;21.068;2022-12-22T11:01:28;34.50;;;16.63;;
5060;SDS011;2549;52.128;21.068;2022-12-22T11:03:57;32.33;;;16.75;;
5060;SDS011;2549;52.128;21.068;2022-12-22T11:06:51;30.35;;;15.52;;
5060;SDS011;2549;52.128;21.068;2022-12-22T11:09:20;31.80;;;15.88;;
5060;SDS011;2549;52.128;21.068;2022-12-22T11:15:14;26.58;;;14.88;;
5060;SDS011;2549;52.128;21.068;2022-12-22T11:29:19;30.33;;;16.80;;
5060;SDS011;2549;52.128;21.068;2022-12-22T11:35:17;30.10;;;15.77;;
5060;SDS011;2549;52.128;21.068;2022-12-22T11:37:50;36.28;;;15.20;;
5060;SDS011;2549;52.128;21.068;2022-12-22T11:40:29;33.17;;;16.30;;
5060;SDS011;2549;52.128;21.068;2022-12-22T11:43:20;34.42;;;17.02;;
5060;SDS011;2549;52.128;21.068;2022-12-22T11:54:41;23.95;;;14.05;;
5060;SDS011;2549;52.128;21.068;2022-12-22T11:57:22;30.20;;;14.93;;
5060;SDS011;2549;52.128;21.068;2022-12-22T12:00:09;28.88;;;14.63;;
5060;SDS011;2549;52.128;21.068;2022-12-22T12:21:56;25.83;;;13.32;;
5060;SDS011;2549;52.128;21.068;2022-12-22T12:24:28;27.48;;;14.63;;
5060;SDS011;2549;52.128;21.068;2022-12-22T12:27:20;31.38;;;14.90;;
5060;SDS011;2549;52.128;21.068;2022-12-22T12:33:13;26.20;;;15.75;;
5060;SDS011;2549;52.128;21.068;2022-12-22T12:44:37;22.20;;;11.98;;
5060;SDS011;2549;52.128;21.068;2022-12-22T12:47:06;19.75;;;10.90;;
5060;SDS011;2549;52.128;21.068;2022-12-22T12:55:29;21.67;;;11.90;;
5060;SDS011;2549;52.128;21.068;2022-12-22T13:01:11;20.00;;;10.73;;
5060;SDS011;2549;52.128;21.068;2022-12-22T13:03:59;17.27;;;10.20;;
5060;SDS011;2549;52.128;21.068;2022-12-22T13:09:20;16.77;;;9.20;;
5060;SDS011;2549;52.128;21.068;2022-12-22T13:12:32;16.17;;;8.82;;
5060;SDS011;2549;52.128;21.068;2022-12-22T13:15:25;19.45;;;11.43;;
5060;SDS011;2549;52.128;21.068;2022-12-22T13:17:59;24.90;;;11.10;;
5060;SDS011;2549;52.128;21.068;2022-12-22T13:20:34;18.10;;;10.63;;
5060;SDS011;2549;52.128;21.068;2022-12-22T13:23:08;20.25;;;10.82;;
5060;SDS011;2549;52.128;21.068;2022-12-22T13:25:56;31.63;;;10.38;;
5060;SDS011;2549;52.128;21.068;2022-12-22T13:28:25;18.60;;;10.52;;
5060;SDS011;2549;52.128;21.068;2022-12-22T13:30:57;21.58;;;11.73;;
5060;SDS011;2549;52.128;21.068;2022-12-22T13:33:28;21.60;;;11.02;;
5060;SDS011;2549;52.128;21.068;2022-12-22T13:35:57;20.85;;;10.57;;
5060;SDS011;2549;52.128;21.068;2022-12-22T13:38:32;23.63;;;12.35;;
5060;SDS011;2549;52.128;21.068;2022-12-22T13:41:01;22.83;;;11.38;;
5060;SDS011;2549;52.128;21.068;2022-12-22T13:43:52;19.13;;;10.65;;
5060;SDS011;2549;52.128;21.068;2022-12-22T13:46:29;23.45;;;12.10;;
5060;SDS011;2549;52.128;21.068;2022-12-22T13:48:58;25.77;;;11.00;;
5060;SDS011;2549;52.128;21.068;2022-12-22T13:51:28;23.95;;;12.80;;
5060;SDS011;2549;52.128;21.068;2022-12-22T13:54:03;27.10;;;13.63;;
5060;SDS011;2549;52.128;21.068;2022-12-22T13:56:43;26.52;;;12.18;;
5060;SDS011;2549;52.128;21.068;2022-12-22T14:01:57;29.10;;;13.52;;
5060;SDS011;2549;52.128;21.068;2022-12-22T14:04:40;27.15;;;14.27;;
5060;SDS011;2549;52.128;21.068;2022-12-22T14:07:12;31.67;;;15.00;;
5060;SDS011;2549;52.128;21.068;2022-12-22T14:12:13;23.67;;;13.20;;
5060;SDS011;2549;52.128;21.068;2022-12-22T14:14:46;23.30;;;13.07;;
5060;SDS011;2549;52.128;21.068;2022-12-22T14:17:22;27.55;;;13.55;;
5060;SDS011;2549;52.128;21.068;2022-12-22T14:19:55;21.23;;;11.75;;
5060;SDS011;2549;52.128;21.068;2022-12-22T14:22:25;24.33;;;13.20;;
5060;SDS011;2549;52.128;21.068;2022-12-22T14:24:58;28.20;;;13.45;;
5060;SDS011;2549;52.128;21.068;2022-12-22T14:27:51;22.00;;;13.02;;
5060;SDS011;2549;52.128;21.068;2022-12-22T14:30:22;23.67;;;12.40;;
5060;SDS011;2549;52.128;21.068;2022-12-22T14:33:13;27.42;;;13.43;;
5060;SDS011;2549;52.128;21.068;2022-12-22T14:35:40;25.02;;;11.80;;
5060;SDS011;2549;52.128;21.068;2022-12-22T14:40:43;24.63;;;12.60;;
5060;SDS011;2549;52.128;21.068;2022-12-22T14:45:49;22.52;;;12.75;;
5060;SDS011;2549;52.128;21.068;2022-12-22T14:48:44;25.48;;;13.30;;
5060;SDS011;2549;52.128;21.068;2022-12-22T14:51:16;25.48;;;13.45;;
5060;SDS011;2549;52.128;21.068;2022-12-22T14:56:12;23.98;;;13.48;;
5060;SDS011;2549;52.128;21.068;2022-12-22T14:58:41;29.60;;;14.05;;
5060;SDS011;2549;52.128;21.068;2022-12-22T15:06:35;29.63;;;14.68;;
5060;SDS011;2549;52.128;21.068;2022-12-22T15:11:32;26.20;;;14.00;;
5060;SDS011;2549;52.128;21.068;2022-12-22T15:14:01;28.17;;;14.98;;
5060;SDS011;2549;52.128;21.068;2022-12-22T15:16:29;25.50;;;14.30;;
5060;SDS011;2549;52.128;21.068;2022-12-22T15:18:56;29.95;;;15.27;;
5060;SDS011;2549;52.128;21.068;2022-12-22T15:21:23;28.73;;;15.57;;
5060;SDS011;2549;52.128;21.068;2022-12-22T15:23:50;33.40;;;14.95;;
5060;SDS011;2549;52.128;21.068;2022-12-22T15:26:17;28.63;;;14.02;;
5060;SDS011;2549;52.128;21.068;2022-12-22T15:28:44;25.77;;;13.20;;
5060;SDS011;2549;52.128;21.068;2022-12-22T15:31:14;35.00;;;16.50;;
5060;SDS011;2549;52.128;21.068;2022-12-22T15:33:42;27.48;;;15.25;;
5060;SDS011;2549;52.128;21.068;2022-12-22T15:36:11;28.38;;;15.05;;
5060;SDS011;2549;52.128;21.068;2022-12-22T15:38:39;28.63;;;14.90;;
5060;SDS011;2549;52.128;21.068;2022-12-22T15:41:06;26.95;;;15.10;;
5060;SDS011;2549;52.128;21.068;2022-12-22T15:43:33;24.98;;;14.48;;
5060;SDS011;2549;52.128;21.068;2022-12-22T15:46:22;21.67;;;13.27;;
5060;SDS011;2549;52.128;21.068;2022-12-22T15:48:50;27.77;;;15.15;;
5060;SDS011;2549;52.128;21.068;2022-12-22T15:51:21;30.77;;;15.73;;
5060;SDS011;2549;52.128;21.068;2022-12-22T15:53:51;32.60;;;15.63;;
5060;SDS011;2549;52.128;21.068;2022-12-22T15:56:20;28.83;;;14.43;;
5060;SDS011;2549;52.128;21.068;2022-12-22T15:58:50;24.70;;;14.38;;
5060;SDS011;2549;52.128;21.068;2022-12-22T16:01:18;28.55;;;14.50;;
5060;SDS011;2549;52.128;21.068;2022-12-22T16:03:45;24.27;;;14.50;;
5060;SDS011;2549;52.128;21.068;2022-12-22T16:06:12;31.67;;;14.57;;
5060;SDS011;2549;52.128;21.068;2022-12-22T16:08:42;32.63;;;16.05;;
5060;SDS011;2549;52.128;21.068;2022-12-22T16:11:16;29.13;;;15.23;;
5060;SDS011;2549;52.128;21.068;2022-12-22T16:13:43;26.58;;;15.40;;
5060;SDS011;2549;52.128;21.068;2022-12-22T16:16:11;28.38;;;15.55;;
5060;SDS011;2549;52.128;21.068;2022-12-22T16:18:38;24.25;;;14.15;;
5060;SDS011;2549;52.128;21.068;2022-12-22T16:21:13;29.08;;;15.90;;
5060;SDS011;2549;52.128;21.068;2022-12-22T16:23:44;29.50;;;17.00;;
5060;SDS011;2549;52.128;21.068;2022-12-22T16:26:15;31.58;;;17.05;;
5060;SDS011;2549;52.128;21.068;2022-12-22T16:28:44;34.25;;;16.30;;
5060;SDS011;2549;52.128;21.068;2022-12-22T16:31:22;29.30;;;16.20;;
5060;SDS011;2549;52.128;21.068;2022-12-22T16:33:50;31.42;;;15.25;;
5060;SDS011;2549;52.128;21.068;2022-12-22T16:36:17;31.70;;;16.85;;
5060;SDS011;2549;52.128;21.068;2022-12-22T16:38:45;32.00;;;16.58;;
5060;SDS011;2549;52.128;21.068;2022-12-22T16:41:17;30.92;;;16.55;;
5060;SDS011;2549;52.128;21.068;2022-12-22T16:43:49;27.02;;;14.32;;
5060;SDS011;2549;52.128;21.068;2022-12-22T16:46:36;27.23;;;14.68;;
5060;SDS011;2549;52.128;21.068;2022-12-22T16:49:07;31.20;;;14.63;;
5060;SDS011;2549;52.128;21.068;2022-12-22T16:51:35;31.65;;;17.98;;
5060;SDS011;2549;52.128;21.068;2022-12-22T16:54:05;29.77;;;15.70;;
5060;SDS011;2549;52.128;21.068;2022-12-22T16:56:32;39.80;;;17.48;;
5060;SDS011;2549;52.128;21.068;2022-12-22T16:59:10;33.53;;;15.45;;
5060;SDS011;2549;52.128;21.068;2022-12-22T17:01:59;29.33;;;16.02;;
5060;SDS011;2549;52.128;21.068;2022-12-22T17:04:27;34.47;;;17.08;;
5060;SDS011;2549;52.128;21.068;2022-12-22T17:06:57;28.88;;;17.08;;
5060;SDS011;2549;52.128;21.068;2022-12-22T17:09:29;33.85;;;18.08;;
5060;SDS011;2549;52.128;21.068;2022-12-22T17:12:24;30.35;;;15.25;;
5060;SDS011;2549;52.128;21.068;2022-12-22T17:14:53;29.95;;;16.10;;
5060;SDS011;2549;52.128;21.068;2022-12-22T17:17:22;34.92;;;17.02;;
5060;SDS011;2549;52.128;21.068;2022-12-22T17:19:57;32.30;;;16.67;;
5060;SDS011;2549;52.128;21.068;2022-12-22T17:22:24;32.47;;;17.63;;
5060;SDS011;2549;52.128;21.068;2022-12-22T17:24:52;31.95;;;16.52;;
5060;SDS011;2549;52.128;21.068;2022-12-22T17:27:23;29.75;;;15.82;;